sensor_id;sensor_type;location;lat;lon;timestamp;P1;durP1;ratioP1;P2;durP2;ratioP2
85210;SDS011;75591;44.496;0.166;2024-02-16T00:03:58;12.30;;;3.63;;
85210;SDS011;75591;44.496;0.166;2024-02-16T00:19:17;12.87;;;4.10;;
85210;SDS011;75591;44.496;0.166;2024-02-16T00:34:37;13.50;;;4.03;;
85210;SDS011;75591;44.496;0.166;2024-02-16T00:50:00;12.73;;;3.63;;
85210;SDS011;75591;44.496;0.166;2024-02-16T01:05:18;7.90;;;2.77;;
85210;SDS011;75591;44.496;0.166;2024-02-16T01:20:35;6.60;;;1.67;;
85210;SDS011;75591;44.496;0.166;2024-02-16T01:35:58;7.23;;;2.40;;
85210;SDS011;75591;44.496;0.166;2024-02-16T01:51:13;8.73;;;0.90;;
85210;SDS011;75591;44.496;0.166;2024-02-16T02:06:32;11.33;;;1.37;;
85210;SDS011;75591;44.496;0.166;2024-02-16T02:21:51;16.00;;;1.00;;
85210;SDS011;75591;44.496;0.166;2024-02-16T02:37:10;3.70;;;0.53;;
85210;SDS011;75591;44.496;0.166;2024-02-16T02:52:30;13.20;;;1.33;;
85210;SDS011;75591;44.496;0.166;2024-02-16T03:07:48;5.57;;;1.00;;
85210;SDS011;75591;44.496;0.166;2024-02-16T03:23:06;13.40;;;1.20;;
85210;SDS011;75591;44.496;0.166;2024-02-16T03:38:26;6.83;;;1.00;;
85210;SDS011;75591;44.496;0.166;2024-02-16T03:53:46;12.07;;;2.13;;
85210;SDS011;75591;44.496;0.166;2024-02-16T04:09:06;12.53;;;1.80;;
85210;SDS011;75591;44.496;0.166;2024-02-16T04:24:24;22.63;;;2.13;;
85210;SDS011;75591;44.496;0.166;2024-02-16T04:39:46;12.80;;;1.67;;
85210;SDS011;75591;44.496;0.166;2024-02-16T04:55:06;19.97;;;1.83;;
85210;SDS011;75591;44.496;0.166;2024-02-16T05:10:25;14.23;;;1.97;;
85210;SDS011;75591;44.496;0.166;2024-02-16T05:25:43;16.57;;;2.03;;
85210;SDS011;75591;44.496;0.166;2024-02-16T05:41:03;17.80;;;2.10;;
85210;SDS011;75591;44.496;0.166;2024-02-16T05:56:23;14.13;;;2.20;;
85210;SDS011;75591;44.496;0.166;2024-02-16T06:11:43;24.57;;;2.70;;
85210;SDS011;75591;44.496;0.166;2024-02-16T06:27:02;19.37;;;1.97;;
85210;SDS011;75591;44.496;0.166;2024-02-16T06:42:22;22.80;;;2.00;;
85210;SDS011;75591;44.496;0.166;2024-02-16T06:57:41;23.60;;;2.97;;
85210;SDS011;75591;44.496;0.166;2024-02-16T07:12:59;19.27;;;3.00;;
85210;SDS011;75591;44.496;0.166;2024-02-16T07:28:19;30.53;;;3.93;;
85210;SDS011;75591;44.496;0.166;2024-02-16T07:43:42;17.30;;;2.70;;
85210;SDS011;75591;44.496;0.166;2024-02-16T07:59:15;19.80;;;2.90;;
85210;SDS011;75591;44.496;0.166;2024-02-16T08:14:22;18.23;;;3.13;;
85210;SDS011;75591;44.496;0.166;2024-02-16T08:29:37;16.33;;;2.57;;
85210;SDS011;75591;44.496;0.166;2024-02-16T08:45:05;17.83;;;2.27;;
85210;SDS011;75591;44.496;0.166;2024-02-16T09:00:16;19.63;;;2.10;;
85210;SDS011;75591;44.496;0.166;2024-02-16T09:15:34;17.80;;;2.47;;
85210;SDS011;75591;44.496;0.166;2024-02-16T09:30:55;18.97;;;2.07;;
85210;SDS011;75591;44.496;0.166;2024-02-16T09:46:12;22.33;;;2.33;;
85210;SDS011;75591;44.496;0.166;2024-02-16T10:01:32;14.83;;;2.43;;
85210;SDS011;75591;44.496;0.166;2024-02-16T10:17:05;12.50;;;1.57;;
85210;SDS011;75591;44.496;0.166;2024-02-16T10:32:12;17.40;;;1.83;;
85210;SDS011;75591;44.496;0.166;2024-02-16T10:47:34;15.90;;;2.47;;
85210;SDS011;75591;44.496;0.166;2024-02-16T11:02:59;23.83;;;2.77;;
85210;SDS011;75591;44.496;0.166;2024-02-16T11:18:14;21.27;;;2.23;;
85210;SDS011;75591;44.496;0.166;2024-02-16T11:33:42;20.03;;;3.37;;
85210;SDS011;75591;44.496;0.166;2024-02-16T11:48:52;12.03;;;1.90;;
85210;SDS011;75591;44.496;0.166;2024-02-16T12:04:19;8.57;;;3.40;;
85210;SDS011;75591;44.496;0.166;2024-02-16T12:19:32;15.27;;;1.73;;
85210;SDS011;75591;44.496;0.166;2024-02-16T12:34:52;10.37;;;1.43;;
85210;SDS011;75591;44.496;0.166;2024-02-16T12:50:11;7.63;;;1.33;;
85210;SDS011;75591;44.496;0.166;2024-02-16T13:05:29;8.73;;;1.07;;
85210;SDS011;75591;44.496;0.166;2024-02-16T13:20:47;7.10;;;0.70;;
85210;SDS011;75591;44.496;0.166;2024-02-16T13:36:07;11.00;;;1.73;;
85210;SDS011;75591;44.496;0.166;2024-02-16T13:51:27;10.80;;;1.33;;
85210;SDS011;75591;44.496;0.166;2024-02-16T14:06:48;11.90;;;1.17;;
85210;SDS011;75591;44.496;0.166;2024-02-16T14:22:08;12.47;;;1.87;;
85210;SDS011;75591;44.496;0.166;2024-02-16T14:37:24;7.30;;;1.10;;
85210;SDS011;75591;44.496;0.166;2024-02-16T14:52:45;14.30;;;1.77;;
85210;SDS011;75591;44.496;0.166;2024-02-16T15:08:06;5.47;;;1.17;;
85210;SDS011;75591;44.496;0.166;2024-02-16T15:23:24;1.70;;;0.80;;
85210;SDS011;75591;44.496;0.166;2024-02-16T15:38:43;12.03;;;2.33;;
85210;SDS011;75591;44.496;0.166;2024-02-16T15:54:02;12.27;;;1.80;;
85210;SDS011;75591;44.496;0.166;2024-02-16T16:09:22;13.13;;;1.90;;
85210;SDS011;75591;44.496;0.166;2024-02-16T16:24:39;10.17;;;1.40;;
85210;SDS011;75591;44.496;0.166;2024-02-16T16:39:58;11.93;;;1.43;;
85210;SDS011;75591;44.496;0.166;2024-02-16T16:55:17;7.93;;;0.93;;
85210;SDS011;75591;44.496;0.166;2024-02-16T17:10:37;8.73;;;1.33;;
85210;SDS011;75591;44.496;0.166;2024-02-16T17:25:58;8.57;;;1.43;;
85210;SDS011;75591;44.496;0.166;2024-02-16T17:41:20;7.80;;;1.40;;
85210;SDS011;75591;44.496;0.166;2024-02-16T17:56:35;5.30;;;1.40;;
85210;SDS011;75591;44.496;0.166;2024-02-16T18:11:55;8.70;;;1.70;;
85210;SDS011;75591;44.496;0.166;2024-02-16T18:27:14;17.40;;;2.23;;
85210;SDS011;75591;44.496;0.166;2024-02-16T18:42:33;3.13;;;1.40;;
85210;SDS011;75591;44.496;0.166;2024-02-16T18:57:53;5.27;;;1.27;;
85210;SDS011;75591;44.496;0.166;2024-02-16T19:13:13;6.23;;;1.30;;
85210;SDS011;75591;44.496;0.166;2024-02-16T19:28:32;5.50;;;1.43;;
85210;SDS011;75591;44.496;0.166;2024-02-16T19:43:50;4.70;;;1.80;;
85210;SDS011;75591;44.496;0.166;2024-02-16T19:59:09;13.73;;;2.70;;
85210;SDS011;75591;44.496;0.166;2024-02-16T20:14:29;8.43;;;1.60;;
85210;SDS011;75591;44.496;0.166;2024-02-16T20:29:48;5.47;;;2.20;;
85210;SDS011;75591;44.496;0.166;2024-02-16T20:45:07;13.90;;;1.90;;
85210;SDS011;75591;44.496;0.166;2024-02-16T21:00:26;10.10;;;2.07;;
85210;SDS011;75591;44.496;0.166;2024-02-16T21:15:46;15.67;;;1.43;;
85210;SDS011;75591;44.496;0.166;2024-02-16T21:31:03;7.90;;;1.43;;
85210;SDS011;75591;44.496;0.166;2024-02-16T21:46:24;28.90;;;2.83;;
85210;SDS011;75591;44.496;0.166;2024-02-16T22:01:42;16.17;;;4.63;;
85210;SDS011;75591;44.496;0.166;2024-02-16T22:17:02;9.97;;;2.30;;
85210;SDS011;75591;44.496;0.166;2024-02-16T22:32:21;15.23;;;3.90;;
85210;SDS011;75591;44.496;0.166;2024-02-16T22:47:39;14.27;;;2.87;;
85210;SDS011;75591;44.496;0.166;2024-02-16T23:03:00;5.73;;;2.63;;
85210;SDS011;75591;44.496;0.166;2024-02-16T23:18:18;28.07;;;4.40;;
85210;SDS011;75591;44.496;0.166;2024-02-16T23:33:36;12.10;;;3.63;;
85210;SDS011;75591;44.496;0.166;2024-02-16T23:48:56;17.80;;;4.23;;
